Independence, Ca., Owens Valley School Weather observations

 Day   Time    Ave.   Ave.  Ave.  Vector  Max.   Total    Solar  
  of    of     Air    Rel.  Wind   Wind   Wind  Precip.   Rad.   
Year   Day     Temp.  Hum.  Speed  Dir.   Gust                   
2015   (PST)    F      %     mph   deg.    mph    in.     W/m2  
----------------------------------------------------------------
 215    1:00   74.4    29    1.7   169     3.3    0.00       0
 215    1:10   73.9    30    0.7   195     2.9    0.00       0
 215    1:20   72.3    30    1.9   186     3.5    0.00       0
 215    1:30   73.3    29    1.4   293     3.0    0.00       0
 215    1:40   73.1    29    2.1   261     3.3    0.00       0
 215    1:50   72.3    30    2.1   302     3.3    0.00       0
 215    2:00   72.7    28    2.2   267     3.1    0.00       0
 215    2:10   72.4    27    2.3   252     2.9    0.00       0
 215    2:20   72.6    26    2.0   257     3.1    0.00       0
 215    2:30   71.9    26    2.4   242     3.4    0.00       0
 215    2:40   71.9    26    2.4   241     3.3    0.00       0
 215    2:50   71.9    26    1.9   246     3.3    0.00       0
 215    3:00   71.7    28    1.5   253     2.3    0.00       0
 215    3:10   71.6    29    1.5   275     2.2    0.00       0
 215    3:20   71.8    29    0.9   278     2.1    0.00       0
 215    3:30   71.0    30    0.2    28     1.2    0.00       0
 215    3:40   70.5    30    1.6   289     2.1    0.00       0
 215    3:50   70.1    32    0.5   228     1.9    0.00       0
 215    4:00   69.1    32    1.5   268     2.2    0.00       0
 215    4:10   68.8    32    0.5   302     1.9    0.00       0
 215    4:20   68.4    32    0.0     0     0.0    0.00       1
 215    4:30   68.1    34    0.2   166     1.6    0.00       2
 215    4:40   68.0    33    0.9   172     1.9    0.00       6
 215    4:50   69.1    32    1.2   251     2.7    0.00      14
 215    5:00   69.1    33    2.5   257     6.0    0.00      22
 215    5:10   71.5    31    3.0   279     5.7    0.00      57
 215    5:20   73.1    29    2.2   290     3.5    0.00      84
 215    5:30   74.1    29    2.6   310     4.6    0.00     117
 215    5:40   74.2    32    2.1    13     3.4    0.00     155
 215    5:50   73.2    36    1.7    10     3.1    0.00     186
 215    6:00   72.0    35    2.5   341     4.2    0.00     215
 215    6:10   72.3    36    2.5   327     4.0    0.00     244
 215    6:20   75.0    33    3.7   320     7.1    0.00     267
 215    6:30   76.7    31    4.8   319     8.2    0.00     294
 215    6:40   77.8    30    5.4   321     9.5    0.00     318
 215    6:50   79.1    29    4.8   322     9.8    0.00     347
 215    7:00   80.1    28    4.9   325     9.6    0.00     391
 215    7:10   80.4    29    5.4   344    10.2    0.00     423
 215    7:20   80.6    29    5.0   337     8.6    0.00     453
 215    7:30   81.4    28    5.0   339    10.6    0.00     487
 215    7:40   81.1    29    6.8   343    10.4    0.00     517
 215    7:50   82.2    28    4.5   323     8.7    0.00     552
 215    8:00   83.0    27    5.3   326     8.6    0.00     580
 215    8:10   83.9    26    5.5   334     9.5    0.00     606
 215    8:20   85.5    25    4.1   342     7.6    0.00     630
 215    8:30   86.2    24    4.6     1     8.4    0.00     655
 215    8:40   87.6    23    4.1    11     9.0    0.00     702
 215    8:50   88.9    22    3.8    34     7.4    0.00     734
 215    9:00   89.7    22    3.7    63     7.2    0.00     742
 215    9:10   90.3    22    3.8    61     7.2    0.00     767
 215    9:20   91.7    20    2.5    63     6.8    0.00     770
 215    9:30   91.8    19    3.7    41     6.5    0.00     807
 215    9:40   92.8    17    3.1    68     7.3    0.00     811
 215    9:50   93.5    17    2.3    48     7.1    0.00     788
 215   10:00   92.9    17    3.1    36     6.7    0.00     675
 215   10:10   92.9    15    3.4   122     6.8    0.00     700
 215   10:20   92.4    13    6.2   131    12.8    0.00     853
 215   10:30   92.7    12    5.8   104    10.6    0.00     853
 215   10:40   93.8    12    4.9   110    11.7    0.00     892
 215   10:50   94.6    12    5.0   123    14.9    0.00     889
 215   11:00   94.0    12    5.0   129    11.7    0.00     763
 215   11:10   95.1    12    4.6   142    12.0    0.00     886
 215   11:20   94.9    11    5.9   127    12.7    0.00     883
 215   11:30   94.6    10    6.1   122    12.1    0.00     840
 215   11:40   95.6     9    5.9   136    12.1    0.00     896
 215   11:50   95.9     7    7.3   113    13.5    0.00     880
 215   12:00   96.2     8    6.6   122    12.1    0.00     879
 215   12:10   96.6     8    5.0   144    13.1    0.00     857
 215   12:20   96.6     8    6.7   125    13.4    0.00     868
 215   12:30   96.2     9    8.1   132    14.4    0.00     857
 215   12:40   96.7     9    7.9   148    17.0    0.00     837
 215   12:50   96.8     9    9.0   142    18.1    0.00     810
 215   13:00   96.7     9    7.8   151    15.0    0.00     800
 215   13:10   97.1     8    7.6   140    17.2    0.00     791
 215   13:20   97.1     8    8.5   144    17.6    0.00     785
 215   13:30   97.4     8    8.5   149    17.1    0.00     767
 215   13:40   98.0     8    7.4   159    12.9    0.00     730
 215   13:50   98.3     8    7.4   129    14.6    0.00     730
 215   14:00   98.5     7    8.7   152    17.6    0.00     725
 215   14:10   98.3     7    6.6   150    13.6    0.00     694
 215   14:20   98.5     7    8.5   150    15.1    0.00     666
 215   14:30   99.1     7    5.0   144    11.2    0.00     637
 215   14:40   99.6     7    5.2   143    11.3    0.00     629
 215   14:50   98.8     7    8.4   135    15.6    0.00     622
 215   15:00   98.4     7    8.6   138    16.4    0.00     589
 215   15:10   97.8     7    7.0   165    17.4    0.00     536
 215   15:20   98.6     7    6.6   159    17.6    0.00     510
 215   15:30   97.4     7    9.0   135    17.1    0.00     386
 215   15:40   97.3     8    4.8   178     9.7    0.00     320
 215   15:50   97.8     7    7.0   152    16.7    0.00     403
 215   16:00   98.0     7    8.2   152    16.6    0.00     352
 215   16:10   97.2     7    5.7   154    14.5    0.00     287
 215   16:20   97.3     7    6.2   161    12.7    0.00     326
 215   16:30   97.0     7    7.2   141    16.8    0.00     301
 215   16:40   96.6     7    7.3   125    14.2    0.00     269
 215   16:50   96.1     8    8.1   142    14.7    0.00     216
 215   17:00   95.4     8    8.1   148    14.9    0.00     146
 215   17:10   95.3     8    7.2   147    12.5    0.00     169
 215   17:20   95.2     8    6.9   138    14.2    0.00     147
 215   17:30   94.8     8    6.4   146    13.9    0.00     124
 215   17:40   94.3     8    6.6   146    12.0    0.00      84
 215   17:50   93.0     8    6.9   148    11.3    0.00      34
 215   18:00   92.0     9    6.6   147    12.8    0.00      24
 215   18:10   91.1     9    6.3   150     9.3    0.00      13
 215   18:20   90.1    10    5.0   153    10.4    0.00       7
 215   18:30   89.1    10    2.8   176     5.8    0.00       4
 215   18:40   88.5    10    2.9   194     7.3    0.00       1
 215   18:50   87.4    10    2.6   208     6.2    0.00       0
 215   19:00   87.3    10    3.1   220     7.3    0.00       0
 215   19:10   86.8    10    3.4   203    10.3    0.00       0
 215   19:20   87.0    11    3.4   210     9.1    0.00       0
 215   19:30   87.0    11    3.4   200     7.2    0.00       0
 215   19:40   86.7    11    3.1   190     5.7    0.00       0
 215   19:50   86.3    11    3.7   127     8.3    0.00       0
 215   20:00   84.3    12    2.3   109     5.2    0.00       0
 215   20:10   84.5    12    2.7   125     6.9    0.00       0
 215   20:20   84.9    12    3.9   148     9.7    0.00       0
 215   20:30   84.8    12    4.1   168     8.7    0.00       0
 215   20:40   83.9    12    3.8   196     7.9    0.00       0
 215   20:50   83.3    12    4.7   192    10.2    0.00       0
 215   21:00   83.4    12    4.4   194     9.2    0.00       0
 215   21:10   83.4    12    4.0   195     8.4    0.00       0
 215   21:20   82.9    12    3.6   204     6.6    0.00       0
 215   21:30   82.3    13    3.5   203     7.1    0.00       0
 215   21:40   82.4    12    3.1   191     7.5    0.00       0
 215   21:50   82.1    13    2.1   156     5.2    0.00       0
 215   22:00   80.0    15    1.3    54     2.9    0.00       0
 215   22:10   77.6    16    1.4    98     4.4    0.00       0
 215   22:20   78.1    15    2.0   129     4.8    0.00       0
 215   22:30   77.6    15    2.4   143     4.7    0.00       0
 215   22:40   77.3    16    2.1   139     3.6    0.00       0
 215   22:50   76.9    16    2.2   139     3.5    0.00       0
 215   23:00   77.5    14    1.4    85     3.4    0.00       0
 215   23:10   76.9    15    0.9   263     2.2    0.00       0
 215   23:20   76.0    17    2.5   301     4.5    0.00       0
 215   23:30   74.8    18    1.6   286     3.2    0.00       0
 215   23:40   74.2    18    1.9   265     3.9    0.00       0
 215   23:50   74.5    18    2.2   257     4.1    0.00       0
 216    0:00   75.3    17    1.0   243     1.9    0.00       0
 216    0:10   75.3    17    1.2   233     2.2    0.00       0
 216    0:20   75.6    17    1.1   310     2.4    0.00       0
 216    0:30   74.6    18    1.1   304     3.6    0.00       0
 216    0:40   74.1    19    1.7   267     2.6    0.00       0
 216    0:50   73.8    19    2.4   248     3.1    0.00       0

Return to Independence, Ca. graphs page.


Western Regional Climate Center,wrcc@dri.edu